sensor_id;sensor_type;location;lat;lon;timestamp;P1;durP1;ratioP1;P2;durP2;ratioP2
24147;SDS011;12309;51.450;-2.624;2024-01-25T00:02:23;21.67;;;6.90;;
24147;SDS011;12309;51.450;-2.624;2024-01-25T00:04:49;21.73;;;6.13;;
24147;SDS011;12309;51.450;-2.624;2024-01-25T00:07:15;23.70;;;6.60;;
24147;SDS011;12309;51.450;-2.624;2024-01-25T00:09:41;19.30;;;6.30;;
24147;SDS011;12309;51.450;-2.624;2024-01-25T00:12:07;20.07;;;6.83;;
24147;SDS011;12309;51.450;-2.624;2024-01-25T00:14:33;21.20;;;6.30;;
24147;SDS011;12309;51.450;-2.624;2024-01-25T00:16:59;21.97;;;6.60;;
24147;SDS011;12309;51.450;-2.624;2024-01-25T00:19:24;24.27;;;7.33;;
24147;SDS011;12309;51.450;-2.624;2024-01-25T00:21:50;18.67;;;6.43;;
24147;SDS011;12309;51.450;-2.624;2024-01-25T00:24:16;24.47;;;6.70;;
24147;SDS011;12309;51.450;-2.624;2024-01-25T00:26:41;28.13;;;7.30;;
24147;SDS011;12309;51.450;-2.624;2024-01-25T00:29:07;21.80;;;6.17;;
24147;SDS011;12309;51.450;-2.624;2024-01-25T00:31:33;24.50;;;6.77;;
24147;SDS011;12309;51.450;-2.624;2024-01-25T00:33:59;25.27;;;6.40;;
24147;SDS011;12309;51.450;-2.624;2024-01-25T00:36:27;18.20;;;6.10;;
24147;SDS011;12309;51.450;-2.624;2024-01-25T00:38:53;26.20;;;6.97;;
24147;SDS011;12309;51.450;-2.624;2024-01-25T00:41:19;15.47;;;5.27;;
24147;SDS011;12309;51.450;-2.624;2024-01-25T00:43:45;18.27;;;6.37;;
24147;SDS011;12309;51.450;-2.624;2024-01-25T00:46:11;21.00;;;6.50;;
24147;SDS011;12309;51.450;-2.624;2024-01-25T00:48:37;24.40;;;6.90;;
24147;SDS011;12309;51.450;-2.624;2024-01-25T00:51:06;16.30;;;5.67;;
24147;SDS011;12309;51.450;-2.624;2024-01-25T00:53:33;18.33;;;5.67;;
24147;SDS011;12309;51.450;-2.624;2024-01-25T00:55:59;19.23;;;6.23;;
24147;SDS011;12309;51.450;-2.624;2024-01-25T00:58:25;18.43;;;6.37;;
24147;SDS011;12309;51.450;-2.624;2024-01-25T01:00:51;28.37;;;7.77;;
24147;SDS011;12309;51.450;-2.624;2024-01-25T01:03:18;20.07;;;6.20;;
24147;SDS011;12309;51.450;-2.624;2024-01-25T01:05:44;17.20;;;5.80;;
24147;SDS011;12309;51.450;-2.624;2024-01-25T01:08:10;20.33;;;5.80;;
24147;SDS011;12309;51.450;-2.624;2024-01-25T01:10:36;22.67;;;6.13;;
24147;SDS011;12309;51.450;-2.624;2024-01-25T01:13:03;23.87;;;6.47;;
24147;SDS011;12309;51.450;-2.624;2024-01-25T01:15:29;21.50;;;6.10;;
24147;SDS011;12309;51.450;-2.624;2024-01-25T01:17:55;18.77;;;6.17;;
24147;SDS011;12309;51.450;-2.624;2024-01-25T01:20:20;22.40;;;6.40;;
24147;SDS011;12309;51.450;-2.624;2024-01-25T01:22:46;17.23;;;5.77;;
24147;SDS011;12309;51.450;-2.624;2024-01-25T01:25:12;18.77;;;6.20;;
24147;SDS011;12309;51.450;-2.624;2024-01-25T01:27:38;23.23;;;6.70;;
24147;SDS011;12309;51.450;-2.624;2024-01-25T01:30:03;21.50;;;6.00;;
24147;SDS011;12309;51.450;-2.624;2024-01-25T01:32:29;20.83;;;6.50;;
24147;SDS011;12309;51.450;-2.624;2024-01-25T01:34:55;16.00;;;4.87;;
24147;SDS011;12309;51.450;-2.624;2024-01-25T01:37:21;17.17;;;5.63;;
24147;SDS011;12309;51.450;-2.624;2024-01-25T01:39:47;19.37;;;5.93;;
24147;SDS011;12309;51.450;-2.624;2024-01-25T01:42:12;15.33;;;5.33;;
24147;SDS011;12309;51.450;-2.624;2024-01-25T01:44:38;20.20;;;6.07;;
24147;SDS011;12309;51.450;-2.624;2024-01-25T01:47:04;17.83;;;5.73;;
24147;SDS011;12309;51.450;-2.624;2024-01-25T01:49:30;18.70;;;6.07;;
24147;SDS011;12309;51.450;-2.624;2024-01-25T01:51:56;22.30;;;6.40;;
24147;SDS011;12309;51.450;-2.624;2024-01-25T01:54:23;22.53;;;6.20;;
24147;SDS011;12309;51.450;-2.624;2024-01-25T01:56:49;24.07;;;6.53;;
24147;SDS011;12309;51.450;-2.624;2024-01-25T01:59:15;20.87;;;6.03;;
24147;SDS011;12309;51.450;-2.624;2024-01-25T02:01:42;14.17;;;5.33;;
24147;SDS011;12309;51.450;-2.624;2024-01-25T02:04:08;17.80;;;5.80;;
24147;SDS011;12309;51.450;-2.624;2024-01-25T02:06:33;19.37;;;6.27;;
24147;SDS011;12309;51.450;-2.624;2024-01-25T02:08:59;18.13;;;5.67;;
24147;SDS011;12309;51.450;-2.624;2024-01-25T02:11:26;23.43;;;6.20;;
24147;SDS011;12309;51.450;-2.624;2024-01-25T02:13:51;16.57;;;5.80;;
24147;SDS011;12309;51.450;-2.624;2024-01-25T02:16:17;23.97;;;6.77;;
24147;SDS011;12309;51.450;-2.624;2024-01-25T02:18:45;19.63;;;5.80;;
24147;SDS011;12309;51.450;-2.624;2024-01-25T02:21:11;20.43;;;5.73;;
24147;SDS011;12309;51.450;-2.624;2024-01-25T02:23:37;25.20;;;6.30;;
24147;SDS011;12309;51.450;-2.624;2024-01-25T02:26:03;18.13;;;5.30;;
24147;SDS011;12309;51.450;-2.624;2024-01-25T02:28:29;18.60;;;5.67;;
24147;SDS011;12309;51.450;-2.624;2024-01-25T02:30:55;21.30;;;5.70;;
24147;SDS011;12309;51.450;-2.624;2024-01-25T02:33:21;17.07;;;5.67;;
24147;SDS011;12309;51.450;-2.624;2024-01-25T02:35:46;19.37;;;5.60;;
24147;SDS011;12309;51.450;-2.624;2024-01-25T02:38:12;24.70;;;5.83;;
24147;SDS011;12309;51.450;-2.624;2024-01-25T02:40:38;22.83;;;5.50;;
24147;SDS011;12309;51.450;-2.624;2024-01-25T02:43:04;23.60;;;5.80;;
24147;SDS011;12309;51.450;-2.624;2024-01-25T02:45:30;17.17;;;5.00;;
24147;SDS011;12309;51.450;-2.624;2024-01-25T02:47:56;24.23;;;5.93;;
24147;SDS011;12309;51.450;-2.624;2024-01-25T02:50:22;16.80;;;5.23;;
24147;SDS011;12309;51.450;-2.624;2024-01-25T02:52:48;19.47;;;5.13;;
24147;SDS011;12309;51.450;-2.624;2024-01-25T02:55:14;19.20;;;5.47;;
24147;SDS011;12309;51.450;-2.624;2024-01-25T02:57:43;23.70;;;5.50;;
24147;SDS011;12309;51.450;-2.624;2024-01-25T03:00:09;20.70;;;5.03;;
24147;SDS011;12309;51.450;-2.624;2024-01-25T03:02:35;18.37;;;4.93;;
24147;SDS011;12309;51.450;-2.624;2024-01-25T03:05:01;22.13;;;5.27;;
24147;SDS011;12309;51.450;-2.624;2024-01-25T03:07:26;16.37;;;4.33;;
24147;SDS011;12309;51.450;-2.624;2024-01-25T03:09:52;20.87;;;4.63;;
24147;SDS011;12309;51.450;-2.624;2024-01-25T03:12:19;14.30;;;4.00;;
24147;SDS011;12309;51.450;-2.624;2024-01-25T03:14:45;13.90;;;3.83;;
24147;SDS011;12309;51.450;-2.624;2024-01-25T03:17:10;14.90;;;3.93;;
24147;SDS011;12309;51.450;-2.624;2024-01-25T03:19:37;13.23;;;3.47;;
24147;SDS011;12309;51.450;-2.624;2024-01-25T03:22:03;12.57;;;3.67;;
24147;SDS011;12309;51.450;-2.624;2024-01-25T03:24:29;15.00;;;3.70;;
24147;SDS011;12309;51.450;-2.624;2024-01-25T03:26:55;13.70;;;3.70;;
24147;SDS011;12309;51.450;-2.624;2024-01-25T03:29:21;11.93;;;3.33;;
24147;SDS011;12309;51.450;-2.624;2024-01-25T03:31:47;12.70;;;3.80;;
24147;SDS011;12309;51.450;-2.624;2024-01-25T03:34:13;11.87;;;3.50;;
24147;SDS011;12309;51.450;-2.624;2024-01-25T03:36:39;15.43;;;3.83;;
24147;SDS011;12309;51.450;-2.624;2024-01-25T03:39:05;14.00;;;3.63;;
24147;SDS011;12309;51.450;-2.624;2024-01-25T03:41:32;15.93;;;4.17;;
24147;SDS011;12309;51.450;-2.624;2024-01-25T03:43:58;13.50;;;3.60;;
24147;SDS011;12309;51.450;-2.624;2024-01-25T03:46:24;11.90;;;3.20;;
24147;SDS011;12309;51.450;-2.624;2024-01-25T03:48:49;16.83;;;4.37;;
24147;SDS011;12309;51.450;-2.624;2024-01-25T03:51:15;16.20;;;3.97;;
24147;SDS011;12309;51.450;-2.624;2024-01-25T03:53:41;9.20;;;2.93;;
24147;SDS011;12309;51.450;-2.624;2024-01-25T03:56:11;14.00;;;3.73;;
24147;SDS011;12309;51.450;-2.624;2024-01-25T03:58:38;12.40;;;2.87;;
24147;SDS011;12309;51.450;-2.624;2024-01-25T04:01:03;7.03;;;2.43;;
24147;SDS011;12309;51.450;-2.624;2024-01-25T04:03:29;12.97;;;3.50;;
24147;SDS011;12309;51.450;-2.624;2024-01-25T04:05:55;12.37;;;3.03;;
24147;SDS011;12309;51.450;-2.624;2024-01-25T04:08:21;9.30;;;2.67;;
24147;SDS011;12309;51.450;-2.624;2024-01-25T04:10:47;11.47;;;2.90;;
24147;SDS011;12309;51.450;-2.624;2024-01-25T04:13:12;13.37;;;3.30;;
24147;SDS011;12309;51.450;-2.624;2024-01-25T04:15:38;9.83;;;2.73;;
24147;SDS011;12309;51.450;-2.624;2024-01-25T04:18:04;7.07;;;2.50;;
24147;SDS011;12309;51.450;-2.624;2024-01-25T04:20:30;10.20;;;2.90;;
24147;SDS011;12309;51.450;-2.624;2024-01-25T04:22:59;11.40;;;3.57;;
24147;SDS011;12309;51.450;-2.624;2024-01-25T04:25:24;10.77;;;2.80;;
24147;SDS011;12309;51.450;-2.624;2024-01-25T04:27:50;11.53;;;3.20;;
24147;SDS011;12309;51.450;-2.624;2024-01-25T04:30:16;12.70;;;3.30;;
24147;SDS011;12309;51.450;-2.624;2024-01-25T04:32:42;9.13;;;2.93;;
24147;SDS011;12309;51.450;-2.624;2024-01-25T04:35:08;10.70;;;2.87;;
24147;SDS011;12309;51.450;-2.624;2024-01-25T04:37:34;12.53;;;3.37;;
24147;SDS011;12309;51.450;-2.624;2024-01-25T04:40:01;9.80;;;2.90;;
24147;SDS011;12309;51.450;-2.624;2024-01-25T04:42:27;8.60;;;2.83;;
24147;SDS011;12309;51.450;-2.624;2024-01-25T04:44:53;7.10;;;2.43;;
24147;SDS011;12309;51.450;-2.624;2024-01-25T04:47:19;2.50;;;1.30;;
24147;SDS011;12309;51.450;-2.624;2024-01-25T04:49:44;1.47;;;1.00;;
24147;SDS011;12309;51.450;-2.624;2024-01-25T04:52:10;2.47;;;1.00;;
24147;SDS011;12309;51.450;-2.624;2024-01-25T04:54:36;1.67;;;0.87;;
24147;SDS011;12309;51.450;-2.624;2024-01-25T04:57:02;2.50;;;1.00;;
24147;SDS011;12309;51.450;-2.624;2024-01-25T04:59:31;1.87;;;0.93;;
24147;SDS011;12309;51.450;-2.624;2024-01-25T05:02:00;2.70;;;0.90;;
24147;SDS011;12309;51.450;-2.624;2024-01-25T05:04:27;1.43;;;0.90;;
24147;SDS011;12309;51.450;-2.624;2024-01-25T05:06:54;3.13;;;1.10;;
24147;SDS011;12309;51.450;-2.624;2024-01-25T05:09:20;1.83;;;0.83;;
24147;SDS011;12309;51.450;-2.624;2024-01-25T05:11:46;1.03;;;0.60;;
24147;SDS011;12309;51.450;-2.624;2024-01-25T05:14:12;0.83;;;0.60;;
24147;SDS011;12309;51.450;-2.624;2024-01-25T05:16:38;0.87;;;0.60;;
24147;SDS011;12309;51.450;-2.624;2024-01-25T05:19:04;1.83;;;0.70;;
24147;SDS011;12309;51.450;-2.624;2024-01-25T05:21:30;1.87;;;0.70;;
24147;SDS011;12309;51.450;-2.624;2024-01-25T05:23:56;0.60;;;0.50;;
24147;SDS011;12309;51.450;-2.624;2024-01-25T05:26:22;0.40;;;0.40;;
24147;SDS011;12309;51.450;-2.624;2024-01-25T05:28:48;0.60;;;0.43;;
24147;SDS011;12309;51.450;-2.624;2024-01-25T05:31:13;0.90;;;0.47;;
24147;SDS011;12309;51.450;-2.624;2024-01-25T05:33:41;0.87;;;0.53;;
24147;SDS011;12309;51.450;-2.624;2024-01-25T05:36:08;0.40;;;0.40;;
24147;SDS011;12309;51.450;-2.624;2024-01-25T05:38:34;0.60;;;0.40;;
24147;SDS011;12309;51.450;-2.624;2024-01-25T05:41:00;0.50;;;0.50;;
24147;SDS011;12309;51.450;-2.624;2024-01-25T05:43:26;0.30;;;0.30;;
24147;SDS011;12309;51.450;-2.624;2024-01-25T05:45:52;0.20;;;0.20;;
24147;SDS011;12309;51.450;-2.624;2024-01-25T05:48:18;0.33;;;0.33;;
24147;SDS011;12309;51.450;-2.624;2024-01-25T05:50:43;0.30;;;0.30;;
24147;SDS011;12309;51.450;-2.624;2024-01-25T05:53:09;0.30;;;0.30;;
24147;SDS011;12309;51.450;-2.624;2024-01-25T05:55:35;0.30;;;0.30;;
24147;SDS011;12309;51.450;-2.624;2024-01-25T05:58:01;0.93;;;0.40;;
24147;SDS011;12309;51.450;-2.624;2024-01-25T06:00:27;0.30;;;0.30;;
24147;SDS011;12309;51.450;-2.624;2024-01-25T06:02:53;0.77;;;0.50;;
24147;SDS011;12309;51.450;-2.624;2024-01-25T06:05:19;0.30;;;0.30;;
24147;SDS011;12309;51.450;-2.624;2024-01-25T06:07:45;0.47;;;0.30;;
24147;SDS011;12309;51.450;-2.624;2024-01-25T06:10:11;0.30;;;0.30;;
24147;SDS011;12309;51.450;-2.624;2024-01-25T06:12:37;0.30;;;0.30;;
24147;SDS011;12309;51.450;-2.624;2024-01-25T06:15:03;0.20;;;0.20;;
24147;SDS011;12309;51.450;-2.624;2024-01-25T06:17:30;0.20;;;0.20;;
24147;SDS011;12309;51.450;-2.624;2024-01-25T06:19:56;0.40;;;0.20;;
24147;SDS011;12309;51.450;-2.624;2024-01-25T06:22:22;0.20;;;0.20;;
24147;SDS011;12309;51.450;-2.624;2024-01-25T06:24:48;0.40;;;0.30;;
24147;SDS011;12309;51.450;-2.624;2024-01-25T06:27:14;0.77;;;0.30;;
24147;SDS011;12309;51.450;-2.624;2024-01-25T06:29:40;0.30;;;0.30;;
24147;SDS011;12309;51.450;-2.624;2024-01-25T06:32:06;0.67;;;0.40;;
24147;SDS011;12309;51.450;-2.624;2024-01-25T06:34:31;0.40;;;0.30;;
24147;SDS011;12309;51.450;-2.624;2024-01-25T06:36:57;0.90;;;0.40;;
24147;SDS011;12309;51.450;-2.624;2024-01-25T06:39:23;0.40;;;0.40;;
24147;SDS011;12309;51.450;-2.624;2024-01-25T06:41:49;0.50;;;0.50;;
24147;SDS011;12309;51.450;-2.624;2024-01-25T06:44:15;1.37;;;0.50;;
24147;SDS011;12309;51.450;-2.624;2024-01-25T06:46:42;1.23;;;0.60;;
24147;SDS011;12309;51.450;-2.624;2024-01-25T06:49:08;0.67;;;0.57;;
24147;SDS011;12309;51.450;-2.624;2024-01-25T06:51:34;1.47;;;0.70;;
24147;SDS011;12309;51.450;-2.624;2024-01-25T06:54:00;0.63;;;0.63;;
24147;SDS011;12309;51.450;-2.624;2024-01-25T06:56:26;1.07;;;0.70;;
24147;SDS011;12309;51.450;-2.624;2024-01-25T06:58:52;0.60;;;0.60;;
24147;SDS011;12309;51.450;-2.624;2024-01-25T07:01:21;0.73;;;0.60;;
24147;SDS011;12309;51.450;-2.624;2024-01-25T07:03:48;0.77;;;0.60;;
24147;SDS011;12309;51.450;-2.624;2024-01-25T07:06:15;1.30;;;0.80;;
24147;SDS011;12309;51.450;-2.624;2024-01-25T07:08:45;1.90;;;0.80;;
24147;SDS011;12309;51.450;-2.624;2024-01-25T07:11:11;0.87;;;0.70;;
24147;SDS011;12309;51.450;-2.624;2024-01-25T07:13:37;1.43;;;0.77;;
24147;SDS011;12309;51.450;-2.624;2024-01-25T07:16:03;0.70;;;0.70;;
24147;SDS011;12309;51.450;-2.624;2024-01-25T07:18:29;1.53;;;0.70;;
24147;SDS011;12309;51.450;-2.624;2024-01-25T07:20:55;1.87;;;0.80;;
24147;SDS011;12309;51.450;-2.624;2024-01-25T07:23:21;1.17;;;0.80;;
24147;SDS011;12309;51.450;-2.624;2024-01-25T07:25:47;1.53;;;0.77;;
24147;SDS011;12309;51.450;-2.624;2024-01-25T07:28:13;1.57;;;0.90;;
24147;SDS011;12309;51.450;-2.624;2024-01-25T07:30:39;1.97;;;0.90;;
24147;SDS011;12309;51.450;-2.624;2024-01-25T07:33:05;2.40;;;0.90;;
24147;SDS011;12309;51.450;-2.624;2024-01-25T07:35:31;1.70;;;0.87;;
24147;SDS011;12309;51.450;-2.624;2024-01-25T07:37:57;3.07;;;1.00;;
24147;SDS011;12309;51.450;-2.624;2024-01-25T07:40:23;3.33;;;1.00;;
24147;SDS011;12309;51.450;-2.624;2024-01-25T07:42:49;2.97;;;1.00;;
24147;SDS011;12309;51.450;-2.624;2024-01-25T07:45:15;3.50;;;1.10;;
24147;SDS011;12309;51.450;-2.624;2024-01-25T07:47:41;5.53;;;1.53;;
24147;SDS011;12309;51.450;-2.624;2024-01-25T07:50:07;2.43;;;1.00;;
24147;SDS011;12309;51.450;-2.624;2024-01-25T07:52:33;2.57;;;1.10;;
24147;SDS011;12309;51.450;-2.624;2024-01-25T07:54:59;2.77;;;1.20;;
24147;SDS011;12309;51.450;-2.624;2024-01-25T07:57:25;1.60;;;1.07;;
24147;SDS011;12309;51.450;-2.624;2024-01-25T07:59:50;2.80;;;1.10;;
24147;SDS011;12309;51.450;-2.624;2024-01-25T08:02:16;3.03;;;1.10;;
24147;SDS011;12309;51.450;-2.624;2024-01-25T08:04:42;4.87;;;1.43;;
24147;SDS011;12309;51.450;-2.624;2024-01-25T08:07:08;2.63;;;0.90;;
24147;SDS011;12309;51.450;-2.624;2024-01-25T08:09:34;4.30;;;1.17;;
24147;SDS011;12309;51.450;-2.624;2024-01-25T08:11:59;3.30;;;1.10;;
24147;SDS011;12309;51.450;-2.624;2024-01-25T08:14:25;2.87;;;1.13;;
24147;SDS011;12309;51.450;-2.624;2024-01-25T08:16:51;2.00;;;0.80;;
24147;SDS011;12309;51.450;-2.624;2024-01-25T08:19:17;2.93;;;0.83;;
24147;SDS011;12309;51.450;-2.624;2024-01-25T08:21:43;3.47;;;1.00;;
24147;SDS011;12309;51.450;-2.624;2024-01-25T08:24:09;1.33;;;0.63;;
24147;SDS011;12309;51.450;-2.624;2024-01-25T08:26:35;1.80;;;0.90;;
24147;SDS011;12309;51.450;-2.624;2024-01-25T08:29:01;3.37;;;1.10;;
24147;SDS011;12309;51.450;-2.624;2024-01-25T08:31:26;2.00;;;0.83;;
24147;SDS011;12309;51.450;-2.624;2024-01-25T08:33:53;1.57;;;0.70;;
24147;SDS011;12309;51.450;-2.624;2024-01-25T08:36:18;1.60;;;0.70;;
24147;SDS011;12309;51.450;-2.624;2024-01-25T08:38:44;1.53;;;0.70;;
24147;SDS011;12309;51.450;-2.624;2024-01-25T08:41:10;1.50;;;0.70;;
24147;SDS011;12309;51.450;-2.624;2024-01-25T08:43:36;3.27;;;1.13;;
24147;SDS011;12309;51.450;-2.624;2024-01-25T08:46:02;1.53;;;0.80;;
24147;SDS011;12309;51.450;-2.624;2024-01-25T08:48:28;2.33;;;1.03;;
24147;SDS011;12309;51.450;-2.624;2024-01-25T08:50:54;2.30;;;0.90;;
24147;SDS011;12309;51.450;-2.624;2024-01-25T08:53:20;2.27;;;0.87;;
24147;SDS011;12309;51.450;-2.624;2024-01-25T08:55:48;2.47;;;0.90;;
24147;SDS011;12309;51.450;-2.624;2024-01-25T08:58:13;1.33;;;0.90;;
24147;SDS011;12309;51.450;-2.624;2024-01-25T09:00:39;2.57;;;1.00;;
24147;SDS011;12309;51.450;-2.624;2024-01-25T09:03:05;2.93;;;1.10;;
24147;SDS011;12309;51.450;-2.624;2024-01-25T09:05:31;0.73;;;0.60;;
24147;SDS011;12309;51.450;-2.624;2024-01-25T09:07:59;2.27;;;0.80;;
24147;SDS011;12309;51.450;-2.624;2024-01-25T09:10:25;2.03;;;0.70;;
24147;SDS011;12309;51.450;-2.624;2024-01-25T09:12:51;2.00;;;0.70;;
24147;SDS011;12309;51.450;-2.624;2024-01-25T09:15:16;1.50;;;0.80;;
24147;SDS011;12309;51.450;-2.624;2024-01-25T09:17:43;1.57;;;0.70;;
24147;SDS011;12309;51.450;-2.624;2024-01-25T09:20:10;1.97;;;0.67;;
24147;SDS011;12309;51.450;-2.624;2024-01-25T09:22:36;1.67;;;0.50;;
24147;SDS011;12309;51.450;-2.624;2024-01-25T09:25:02;2.50;;;0.70;;
24147;SDS011;12309;51.450;-2.624;2024-01-25T09:27:28;1.83;;;0.50;;
24147;SDS011;12309;51.450;-2.624;2024-01-25T09:29:54;2.70;;;0.83;;
24147;SDS011;12309;51.450;-2.624;2024-01-25T09:32:20;0.93;;;0.50;;
24147;SDS011;12309;51.450;-2.624;2024-01-25T09:34:46;1.10;;;0.40;;
24147;SDS011;12309;51.450;-2.624;2024-01-25T09:37:12;1.37;;;0.50;;
24147;SDS011;12309;51.450;-2.624;2024-01-25T09:39:39;0.60;;;0.30;;
24147;SDS011;12309;51.450;-2.624;2024-01-25T09:42:05;1.17;;;0.50;;
24147;SDS011;12309;51.450;-2.624;2024-01-25T09:44:32;1.70;;;0.60;;
24147;SDS011;12309;51.450;-2.624;2024-01-25T09:46:58;0.90;;;0.37;;
24147;SDS011;12309;51.450;-2.624;2024-01-25T09:49:26;1.90;;;0.50;;
24147;SDS011;12309;51.450;-2.624;2024-01-25T09:51:52;1.57;;;0.50;;
24147;SDS011;12309;51.450;-2.624;2024-01-25T09:54:20;1.43;;;0.50;;
24147;SDS011;12309;51.450;-2.624;2024-01-25T09:56:46;2.03;;;0.50;;
24147;SDS011;12309;51.450;-2.624;2024-01-25T09:59:16;1.07;;;0.40;;
24147;SDS011;12309;51.450;-2.624;2024-01-25T10:01:42;0.70;;;0.43;;
24147;SDS011;12309;51.450;-2.624;2024-01-25T10:04:09;1.07;;;0.57;;
24147;SDS011;12309;51.450;-2.624;2024-01-25T10:06:35;1.47;;;0.57;;
24147;SDS011;12309;51.450;-2.624;2024-01-25T10:09:00;1.23;;;0.60;;
24147;SDS011;12309;51.450;-2.624;2024-01-25T10:11:27;1.93;;;0.70;;
24147;SDS011;12309;51.450;-2.624;2024-01-25T10:13:58;2.50;;;0.80;;
24147;SDS011;12309;51.450;-2.624;2024-01-25T10:16:26;1.90;;;0.80;;
24147;SDS011;12309;51.450;-2.624;2024-01-25T10:18:52;2.30;;;1.07;;
24147;SDS011;12309;51.450;-2.624;2024-01-25T10:21:18;1.80;;;1.10;;
24147;SDS011;12309;51.450;-2.624;2024-01-25T10:23:44;2.40;;;1.30;;
24147;SDS011;12309;51.450;-2.624;2024-01-25T10:26:13;1.97;;;1.20;;
24147;SDS011;12309;51.450;-2.624;2024-01-25T10:28:39;3.67;;;1.43;;
24147;SDS011;12309;51.450;-2.624;2024-01-25T10:31:05;4.70;;;1.70;;
24147;SDS011;12309;51.450;-2.624;2024-01-25T10:33:32;2.87;;;1.57;;
24147;SDS011;12309;51.450;-2.624;2024-01-25T10:35:59;3.57;;;1.70;;
24147;SDS011;12309;51.450;-2.624;2024-01-25T10:38:33;2.83;;;1.90;;
24147;SDS011;12309;51.450;-2.624;2024-01-25T10:41:03;6.83;;;2.23;;
24147;SDS011;12309;51.450;-2.624;2024-01-25T10:43:30;4.33;;;1.90;;
24147;SDS011;12309;51.450;-2.624;2024-01-25T10:45:57;4.97;;;2.13;;
24147;SDS011;12309;51.450;-2.624;2024-01-25T10:48:26;3.00;;;1.80;;
24147;SDS011;12309;51.450;-2.624;2024-01-25T10:50:53;2.50;;;2.17;;
24147;SDS011;12309;51.450;-2.624;2024-01-25T10:53:20;5.20;;;2.30;;
24147;SDS011;12309;51.450;-2.624;2024-01-25T10:55:47;5.37;;;2.30;;
24147;SDS011;12309;51.450;-2.624;2024-01-25T10:58:13;3.97;;;2.17;;
24147;SDS011;12309;51.450;-2.624;2024-01-25T11:00:40;8.17;;;2.30;;
24147;SDS011;12309;51.450;-2.624;2024-01-25T11:03:07;3.80;;;1.97;;
24147;SDS011;12309;51.450;-2.624;2024-01-25T11:05:33;5.07;;;2.30;;
24147;SDS011;12309;51.450;-2.624;2024-01-25T11:07:59;5.10;;;2.07;;
24147;SDS011;12309;51.450;-2.624;2024-01-25T11:10:25;3.60;;;2.07;;
24147;SDS011;12309;51.450;-2.624;2024-01-25T11:12:56;4.37;;;2.03;;
24147;SDS011;12309;51.450;-2.624;2024-01-25T11:15:33;3.73;;;2.10;;
24147;SDS011;12309;51.450;-2.624;2024-01-25T11:18:00;2.87;;;1.83;;
24147;SDS011;12309;51.450;-2.624;2024-01-25T11:20:27;4.30;;;2.20;;
24147;SDS011;12309;51.450;-2.624;2024-01-25T11:23:04;5.47;;;2.28;;
24147;SDS011;12309;51.450;-2.624;2024-01-25T11:25:32;4.67;;;2.30;;
24147;SDS011;12309;51.450;-2.624;2024-01-25T11:27:59;2.95;;;2.08;;
24147;SDS011;12309;51.450;-2.624;2024-01-25T11:30:29;8.05;;;2.63;;
24147;SDS011;12309;51.450;-2.624;2024-01-25T11:32:57;6.53;;;2.53;;
24147;SDS011;12309;51.450;-2.624;2024-01-25T11:35:23;5.63;;;2.40;;
24147;SDS011;12309;51.450;-2.624;2024-01-25T11:37:49;4.70;;;2.22;;
24147;SDS011;12309;51.450;-2.624;2024-01-25T11:40:18;3.25;;;2.00;;
24147;SDS011;12309;51.450;-2.624;2024-01-25T11:42:48;8.77;;;2.30;;
24147;SDS011;12309;51.450;-2.624;2024-01-25T11:45:15;8.45;;;2.00;;
24147;SDS011;12309;51.450;-2.624;2024-01-25T11:47:41;11.80;;;2.38;;
24147;SDS011;12309;51.450;-2.624;2024-01-25T11:50:09;6.43;;;2.30;;
24147;SDS011;12309;51.450;-2.624;2024-01-25T11:52:35;8.40;;;2.10;;
24147;SDS011;12309;51.450;-2.624;2024-01-25T11:55:02;3.13;;;1.75;;
24147;SDS011;12309;51.450;-2.624;2024-01-25T11:57:47;6.33;;;2.33;;
24147;SDS011;12309;51.450;-2.624;2024-01-25T12:00:13;6.65;;;2.38;;
24147;SDS011;12309;51.450;-2.624;2024-01-25T12:02:40;4.35;;;1.70;;
24147;SDS011;12309;51.450;-2.624;2024-01-25T12:05:06;4.13;;;1.93;;
24147;SDS011;12309;51.450;-2.624;2024-01-25T12:07:34;4.93;;;2.23;;
24147;SDS011;12309;51.450;-2.624;2024-01-25T12:10:04;5.47;;;1.87;;
24147;SDS011;12309;51.450;-2.624;2024-01-25T12:12:32;6.63;;;1.90;;
24147;SDS011;12309;51.450;-2.624;2024-01-25T12:14:58;7.53;;;2.20;;
24147;SDS011;12309;51.450;-2.624;2024-01-25T12:17:28;5.97;;;2.00;;
24147;SDS011;12309;51.450;-2.624;2024-01-25T12:19:54;2.90;;;1.80;;
24147;SDS011;12309;51.450;-2.624;2024-01-25T12:22:24;3.78;;;1.95;;
24147;SDS011;12309;51.450;-2.624;2024-01-25T12:24:55;3.63;;;1.90;;
24147;SDS011;12309;51.450;-2.624;2024-01-25T12:27:22;5.50;;;2.08;;
24147;SDS011;12309;51.450;-2.624;2024-01-25T12:29:52;3.28;;;2.00;;
24147;SDS011;12309;51.450;-2.624;2024-01-25T12:32:21;4.35;;;2.00;;
24147;SDS011;12309;51.450;-2.624;2024-01-25T12:34:58;7.00;;;2.10;;
24147;SDS011;12309;51.450;-2.624;2024-01-25T12:37:26;6.30;;;2.10;;
24147;SDS011;12309;51.450;-2.624;2024-01-25T12:39:52;4.32;;;1.92;;
24147;SDS011;12309;51.450;-2.624;2024-01-25T12:42:19;3.80;;;1.90;;
24147;SDS011;12309;51.450;-2.624;2024-01-25T12:44:48;4.00;;;1.73;;
24147;SDS011;12309;51.450;-2.624;2024-01-25T12:47:15;5.78;;;1.95;;
24147;SDS011;12309;51.450;-2.624;2024-01-25T12:49:42;4.10;;;2.13;;
24147;SDS011;12309;51.450;-2.624;2024-01-25T12:52:09;3.10;;;1.70;;
24147;SDS011;12309;51.450;-2.624;2024-01-25T12:54:36;2.65;;;1.60;;
24147;SDS011;12309;51.450;-2.624;2024-01-25T12:57:02;3.40;;;1.80;;
24147;SDS011;12309;51.450;-2.624;2024-01-25T12:59:28;3.40;;;1.77;;
24147;SDS011;12309;51.450;-2.624;2024-01-25T13:01:54;4.60;;;1.70;;
24147;SDS011;12309;51.450;-2.624;2024-01-25T13:04:20;2.60;;;1.70;;
24147;SDS011;12309;51.450;-2.624;2024-01-25T13:06:49;3.03;;;1.80;;
24147;SDS011;12309;51.450;-2.624;2024-01-25T13:09:17;3.83;;;1.98;;
24147;SDS011;12309;51.450;-2.624;2024-01-25T13:11:43;3.38;;;1.88;;
24147;SDS011;12309;51.450;-2.624;2024-01-25T13:14:09;3.75;;;1.80;;
24147;SDS011;12309;51.450;-2.624;2024-01-25T13:16:35;3.10;;;1.87;;
24147;SDS011;12309;51.450;-2.624;2024-01-25T13:19:01;3.05;;;1.92;;
24147;SDS011;12309;51.450;-2.624;2024-01-25T13:21:26;2.97;;;1.80;;
24147;SDS011;12309;51.450;-2.624;2024-01-25T13:23:52;4.75;;;2.10;;
24147;SDS011;12309;51.450;-2.624;2024-01-25T13:26:18;5.25;;;2.10;;
24147;SDS011;12309;51.450;-2.624;2024-01-25T13:28:44;4.45;;;1.95;;
24147;SDS011;12309;51.450;-2.624;2024-01-25T13:31:10;4.25;;;1.88;;
24147;SDS011;12309;51.450;-2.624;2024-01-25T13:33:36;5.22;;;2.00;;
24147;SDS011;12309;51.450;-2.624;2024-01-25T13:36:02;4.70;;;2.00;;
24147;SDS011;12309;51.450;-2.624;2024-01-25T13:38:33;9.77;;;2.50;;
24147;SDS011;12309;51.450;-2.624;2024-01-25T13:41:02;3.93;;;2.30;;
24147;SDS011;12309;51.450;-2.624;2024-01-25T13:43:27;3.10;;;1.90;;
24147;SDS011;12309;51.450;-2.624;2024-01-25T13:45:54;3.58;;;2.10;;
24147;SDS011;12309;51.450;-2.624;2024-01-25T13:48:20;4.85;;;2.03;;
24147;SDS011;12309;51.450;-2.624;2024-01-25T13:50:46;3.65;;;2.13;;
24147;SDS011;12309;51.450;-2.624;2024-01-25T13:53:12;3.20;;;2.00;;
24147;SDS011;12309;51.450;-2.624;2024-01-25T13:55:38;2.92;;;2.10;;
24147;SDS011;12309;51.450;-2.624;2024-01-25T13:58:04;4.23;;;2.13;;
24147;SDS011;12309;51.450;-2.624;2024-01-25T14:00:30;3.13;;;1.90;;
24147;SDS011;12309;51.450;-2.624;2024-01-25T14:02:56;3.47;;;2.20;;
24147;SDS011;12309;51.450;-2.624;2024-01-25T14:05:22;3.50;;;2.10;;
24147;SDS011;12309;51.450;-2.624;2024-01-25T14:07:47;4.30;;;2.00;;
24147;SDS011;12309;51.450;-2.624;2024-01-25T14:10:13;4.38;;;2.13;;
24147;SDS011;12309;51.450;-2.624;2024-01-25T14:12:40;2.83;;;1.63;;
24147;SDS011;12309;51.450;-2.624;2024-01-25T14:15:06;4.43;;;2.00;;
24147;SDS011;12309;51.450;-2.624;2024-01-25T14:17:32;2.60;;;1.80;;
24147;SDS011;12309;51.450;-2.624;2024-01-25T14:19:59;4.10;;;2.00;;
24147;SDS011;12309;51.450;-2.624;2024-01-25T14:22:25;6.60;;;2.60;;
24147;SDS011;12309;51.450;-2.624;2024-01-25T14:24:51;2.65;;;1.90;;
24147;SDS011;12309;51.450;-2.624;2024-01-25T14:27:17;7.82;;;2.30;;